createdAt,value
2019-03-19T00:01:27.757Z,1.77
2019-03-19T00:06:31.280Z,2.50
2019-03-19T00:11:34.815Z,2.67
2019-03-19T00:16:38.101Z,2.53
2019-03-19T00:21:41.386Z,2.30
2019-03-19T00:26:44.915Z,2.50
2019-03-19T00:31:48.447Z,2.07
2019-03-19T00:36:51.990Z,2.60
2019-03-19T00:41:55.280Z,2.37
2019-03-19T00:46:58.817Z,2.77
2019-03-19T00:52:02.121Z,2.77
2019-03-19T00:57:05.649Z,2.57
2019-03-19T01:02:08.946Z,2.67
2019-03-19T01:07:12.464Z,2.43
2019-03-19T01:12:16.004Z,3.20
2019-03-19T01:17:19.318Z,2.40
2019-03-19T01:22:22.863Z,2.53
2019-03-19T01:27:26.257Z,2.83
2019-03-19T01:32:29.571Z,2.83
2019-03-19T01:37:33.089Z,3.13
2019-03-19T01:42:36.396Z,2.83
2019-03-19T01:47:39.927Z,2.70
2019-03-19T01:52:43.557Z,3.50
2019-03-19T01:57:47.111Z,2.80
2019-03-19T02:02:50.643Z,2.60
2019-03-19T02:07:53.954Z,2.30
2019-03-19T02:12:57.231Z,3.03
2019-03-19T02:18:00.546Z,2.77
2019-03-19T02:23:04.776Z,2.60
2019-03-19T02:28:08.233Z,2.93
2019-03-19T02:33:11.546Z,2.87
2019-03-19T02:38:14.857Z,3.30
2019-03-19T02:43:18.148Z,2.97
2019-03-19T02:48:21.676Z,4.57
2019-03-19T02:53:25.219Z,4.33
2019-03-19T02:58:28.507Z,4.83
2019-03-19T03:03:31.797Z,3.53
2019-03-19T03:08:35.083Z,3.07
2019-03-19T03:13:38.372Z,3.90
2019-03-19T03:18:41.905Z,3.83
2019-03-19T03:23:45.439Z,3.70
2019-03-19T03:28:49.000Z,3.77
2019-03-19T03:33:52.311Z,5.30
2019-03-19T03:38:55.850Z,4.90
2019-03-19T03:43:59.390Z,5.33
2019-03-19T03:49:02.717Z,4.40
2019-03-19T03:54:06.259Z,4.90
2019-03-19T03:59:09.549Z,4.73
2019-03-19T04:04:13.086Z,4.47
2019-03-19T04:09:16.629Z,4.30
2019-03-19T04:14:20.165Z,4.17
2019-03-19T04:19:23.703Z,5.03
2019-03-19T04:24:27.015Z,4.93
2019-03-19T04:29:30.554Z,4.57
2019-03-19T04:34:33.841Z,4.40
2019-03-19T04:39:37.420Z,4.73
2019-03-19T04:44:40.956Z,5.17
2019-03-19T04:49:44.601Z,5.90
2019-03-19T04:54:48.146Z,5.97
2019-03-19T04:59:51.686Z,7.63
2019-03-19T05:04:55.015Z,6.43
2019-03-19T05:09:58.546Z,7.53
2019-03-19T05:15:01.874Z,7.40
2019-03-19T05:20:16.215Z,6.60
2019-03-19T05:25:19.744Z,8.07
2019-03-19T05:30:23.235Z,7.13
2019-03-19T05:35:26.527Z,7.80
2019-03-19T05:40:29.807Z,7.43
2019-03-19T05:45:33.205Z,7.93
2019-03-19T05:50:36.485Z,7.63
2019-03-19T05:55:39.776Z,7.87
2019-03-19T06:00:43.316Z,7.60
2019-03-19T06:05:46.608Z,7.70
2019-03-19T06:10:49.966Z,8.67
2019-03-19T06:15:53.514Z,7.87
2019-03-19T06:20:56.842Z,9.27
2019-03-19T06:26:00.159Z,8.80
2019-03-19T06:31:03.827Z,8.87
2019-03-19T06:36:07.138Z,8.60
2019-03-19T06:41:10.715Z,8.87
2019-03-19T06:46:14.024Z,9.13
2019-03-19T06:51:17.352Z,7.77
2019-03-19T06:56:20.625Z,8.93
2019-03-19T07:01:24.146Z,7.93
2019-03-19T07:06:27.666Z,9.20
2019-03-19T07:11:30.958Z,8.60
2019-03-19T07:16:34.487Z,8.60
2019-03-19T07:21:37.778Z,8.13
2019-03-19T07:26:41.060Z,7.60
2019-03-19T07:31:44.602Z,6.93
2019-03-19T07:36:47.899Z,7.23
2019-03-19T07:41:51.466Z,7.30
2019-03-19T07:46:55.006Z,7.10
2019-03-19T07:51:58.334Z,6.70
2019-03-19T07:57:01.652Z,6.37
2019-03-19T08:02:04.913Z,5.80
2019-03-19T08:07:08.490Z,6.83
2019-03-19T08:12:11.986Z,5.50
2019-03-19T08:17:15.278Z,5.63
2019-03-19T08:22:18.573Z,7.07
2019-03-19T08:27:22.104Z,5.73
2019-03-19T08:32:25.457Z,4.50
2019-03-19T08:37:28.990Z,4.67
2019-03-19T08:42:32.280Z,5.23
2019-03-19T08:47:35.811Z,4.37
2019-03-19T08:52:39.097Z,4.80
2019-03-19T08:57:42.639Z,4.20
2019-03-19T09:02:46.256Z,5.37
2019-03-19T09:07:49.548Z,5.00
2019-03-19T09:12:52.904Z,4.90
2019-03-19T09:17:56.188Z,4.57
2019-03-19T09:22:59.479Z,4.00
2019-03-19T09:28:03.015Z,3.40
2019-03-19T09:33:06.554Z,2.83
2019-03-19T09:38:10.082Z,1.90
2019-03-19T09:43:13.650Z,2.53
2019-03-19T09:48:16.982Z,1.37
2019-03-19T09:53:20.257Z,1.70
2019-03-19T09:58:23.588Z,2.30
2019-03-19T10:03:27.158Z,2.30
2019-03-19T10:08:30.446Z,1.70
2019-03-19T10:13:33.993Z,1.77
2019-03-19T10:18:37.598Z,2.43
2019-03-19T10:23:41.168Z,2.43
2019-03-19T10:28:44.523Z,2.57
2019-03-19T10:33:47.868Z,2.87
2019-03-19T10:38:51.156Z,2.63
2019-03-19T10:43:54.448Z,2.73
2019-03-19T10:48:57.984Z,2.80
2019-03-19T10:54:01.501Z,3.10
2019-03-19T10:59:05.103Z,3.17
2019-03-19T11:04:08.405Z,3.50
2019-03-19T11:09:11.691Z,3.80
2019-03-19T11:14:14.998Z,3.43
2019-03-19T11:19:18.278Z,3.50
2019-03-19T11:24:21.565Z,3.27
2019-03-19T11:29:24.866Z,2.40
2019-03-19T11:34:28.169Z,2.17
2019-03-19T11:39:31.486Z,2.27
2019-03-19T11:44:34.778Z,2.60
2019-03-19T11:49:38.071Z,2.37
2019-03-19T11:54:42.248Z,3.03
2019-03-19T11:59:46.106Z,2.43
2019-03-19T12:04:49.389Z,2.70
2019-03-19T12:09:52.922Z,2.47
2019-03-19T12:14:56.484Z,3.03
2019-03-19T12:19:59.806Z,3.07
2019-03-19T12:25:03.315Z,3.50
2019-03-19T12:30:22.032Z,3.03
2019-03-19T12:35:22.392Z,2.90
2019-03-19T12:40:36.368Z,2.47
2019-03-19T12:45:30.974Z,2.63
2019-03-19T12:50:34.333Z,2.50
2019-03-19T12:55:37.871Z,3.20
2019-03-19T13:00:41.304Z,3.70
2019-03-19T13:05:44.860Z,3.13
2019-03-19T13:10:48.410Z,2.63
2019-03-19T13:15:51.972Z,3.00
2019-03-19T13:20:55.508Z,3.43
2019-03-19T13:25:58.817Z,3.37
2019-03-19T13:31:02.351Z,2.80
2019-03-19T13:36:06.875Z,2.93
2019-03-19T13:41:10.416Z,3.20
2019-03-19T13:46:13.935Z,2.87
2019-03-19T13:51:17.487Z,2.53
2019-03-19T13:56:20.780Z,3.00
2019-03-19T14:01:24.060Z,3.10
2019-03-19T14:06:27.592Z,2.93
2019-03-19T14:11:30.876Z,2.30
2019-03-19T14:16:34.174Z,2.57
2019-03-19T14:21:37.898Z,2.43
2019-03-19T14:26:41.183Z,2.67
2019-03-19T14:31:44.718Z,2.53
2019-03-19T14:36:48.269Z,2.77
2019-03-19T14:41:51.863Z,2.77
2019-03-19T14:46:55.190Z,2.53
2019-03-19T14:51:58.739Z,2.43
2019-03-19T14:57:02.090Z,2.67
2019-03-19T15:02:05.627Z,2.47
2019-03-19T15:07:09.170Z,2.50
2019-03-19T15:12:12.468Z,1.73
2019-03-19T15:17:16.001Z,1.50
2019-03-19T15:22:19.539Z,1.57
2019-03-19T15:27:22.828Z,1.67
2019-03-19T15:32:26.366Z,1.43
2019-03-19T15:37:29.923Z,1.60
2019-03-19T15:42:33.196Z,1.50
2019-03-19T15:47:36.506Z,1.73
2019-03-19T15:52:40.036Z,1.40
2019-03-19T15:57:43.721Z,1.87
2019-03-19T16:02:47.265Z,2.13
2019-03-19T16:07:50.552Z,1.87
2019-03-19T16:12:53.828Z,2.13
2019-03-19T16:17:57.170Z,2.17
2019-03-19T16:23:00.460Z,1.70
2019-03-19T16:28:05.614Z,1.43
2019-03-19T16:33:09.153Z,1.67
2019-03-19T16:38:12.450Z,2.00
2019-03-19T16:43:15.983Z,1.77
2019-03-19T16:48:20.122Z,1.60
2019-03-19T16:53:23.759Z,1.80
2019-03-19T16:58:27.194Z,1.67
2019-03-19T17:03:30.490Z,1.77
2019-03-19T17:08:34.023Z,1.50
2019-03-19T17:13:37.570Z,1.53
2019-03-19T17:18:40.864Z,1.40
2019-03-19T17:23:44.394Z,1.50
2019-03-19T17:28:47.684Z,1.00
2019-03-19T17:33:51.223Z,0.90
2019-03-19T17:38:54.529Z,1.63
2019-03-19T17:43:58.050Z,1.30
2019-03-19T17:49:01.601Z,1.17
2019-03-19T17:54:05.212Z,1.80
2019-03-19T17:59:08.738Z,1.60
2019-03-19T18:04:12.308Z,1.60
2019-03-19T18:09:15.634Z,1.80
2019-03-19T18:14:18.908Z,2.00
2019-03-19T18:19:22.435Z,2.23
2019-03-19T18:24:26.090Z,2.27
2019-03-19T18:29:29.387Z,2.40
2019-03-19T18:34:32.927Z,2.77
2019-03-19T18:39:36.207Z,3.77
2019-03-19T18:44:39.786Z,3.80
2019-03-19T18:49:43.281Z,8.37
2019-03-19T18:54:46.857Z,16.37
2019-03-19T18:59:50.660Z,21.17
2019-03-19T19:04:54.005Z,18.43
2019-03-19T19:09:57.535Z,23.53
2019-03-19T19:15:00.989Z,20.27
2019-03-19T19:20:06.392Z,17.37
2019-03-19T19:25:16.844Z,18.73
2019-03-19T19:30:21.506Z,17.57
2019-03-19T19:35:25.061Z,10.83
2019-03-19T19:40:28.608Z,9.37
2019-03-19T19:45:31.917Z,10.13
2019-03-19T19:50:35.203Z,8.30
2019-03-19T19:55:38.795Z,10.90
2019-03-19T20:00:42.083Z,10.37
2019-03-19T20:05:45.369Z,9.83
2019-03-19T20:10:51.527Z,8.50
2019-03-19T20:15:55.107Z,12.57
2019-03-19T20:20:58.750Z,8.87
2019-03-19T20:26:02.979Z,7.67
2019-03-19T20:31:06.930Z,7.80
2019-03-19T20:36:10.460Z,6.33
2019-03-19T20:41:13.782Z,7.20
2019-03-19T20:46:17.088Z,7.13
2019-03-19T20:51:20.665Z,6.63
2019-03-19T20:56:23.957Z,6.20
2019-03-19T21:01:27.489Z,5.87
2019-03-19T21:06:31.023Z,5.27
2019-03-19T21:11:34.319Z,5.30
2019-03-19T21:16:37.619Z,5.57
2019-03-19T21:21:40.907Z,6.90
2019-03-19T21:26:44.458Z,6.93
2019-03-19T21:31:48.008Z,8.87
2019-03-19T21:36:51.290Z,19.77
2019-03-19T21:41:54.618Z,10.10
2019-03-19T21:46:58.145Z,7.50
2019-03-19T21:52:01.431Z,6.60
2019-03-19T21:57:04.748Z,6.83
2019-03-19T22:02:08.034Z,6.80
2019-03-19T22:07:11.323Z,7.43
2019-03-19T22:12:14.734Z,10.87
2019-03-19T22:17:18.056Z,6.70
2019-03-19T22:22:21.325Z,8.20
2019-03-19T22:27:24.638Z,8.23
2019-03-19T22:32:28.370Z,11.97
2019-03-19T22:37:31.912Z,11.10
2019-03-19T22:42:35.457Z,15.30
2019-03-19T22:47:38.764Z,20.17
2019-03-19T22:52:42.054Z,7.53
2019-03-19T22:57:45.339Z,9.40
2019-03-19T23:02:48.637Z,8.70
2019-03-19T23:07:58.131Z,9.63
2019-03-19T23:13:02.852Z,9.20
2019-03-19T23:18:12.510Z,7.53
2019-03-19T23:23:20.209Z,7.80
2019-03-19T23:28:23.728Z,9.00
2019-03-19T23:33:27.262Z,7.70
2019-03-19T23:38:30.796Z,8.03
2019-03-19T23:43:34.321Z,7.30
2019-03-19T23:48:43.521Z,7.23
2019-03-19T23:53:48.365Z,7.80
2019-03-19T23:59:06.904Z,8.43
